Time;durP1;ratioP1;P1;durP2;ratioP2;P2;SDS_P1;SDS_P2;PMS_P1;PMS_P2;Temp;Humidity;BMP_temperature;BMP_pressure;BME280_temperature;BME280_humidity;BME280_pressure;Samples;Min_cycle;Max_cycle;Signal;HPM_P1;HPM_P2
2021/12/19 00:00:28;;;;;;;23.40;14.38;;;;;;;-3.80;100.00;94413.56;2098755;28;20032;-88
2021/12/19 00:01:48;;;;;;;24.23;13.40;;;;;;;-3.55;100.00;94420.09;2098929;28;20017;-89
2021/12/19 00:08:34;;;;;;;22.58;13.27;;;;;;;-3.73;100.00;94413.13;2085756;28;20037;-87
2021/12/19 00:09:35;;;;;;;22.92;13.02;;;;;;;-3.83;100.00;94414.13;2075193;28;20501;-88
2021/12/19 00:10:36;;;;;;;24.88;13.18;;;;;;;-3.96;100.00;94410.47;2098947;28;20063;-88
2021/12/19 00:11:37;;;;;;;22.35;13.00;;;;;;;-3.99;100.00;94408.47;2098845;28;20028;-89
2021/12/19 00:12:38;;;;;;;23.58;13.70;;;;;;;-4.00;100.00;94408.72;2090402;28;20079;-88
2021/12/19 00:13:40;;;;;;;24.27;14.23;;;;;;;-3.98;100.00;94406.63;2098720;28;20036;-88
2021/12/19 00:14:41;;;;;;;20.05;13.32;;;;;;;-3.87;100.00;94408.72;2098822;28;20020;-90
2021/12/19 00:15:42;;;;;;;23.02;13.35;;;;;;;-3.94;100.00;94402.34;2090435;28;20053;-89
2021/12/19 00:16:43;;;;;;;21.23;13.02;;;;;;;-3.84;100.00;94394.31;2090549;28;20033;-91
2021/12/19 00:17:44;;;;;;;23.95;14.15;;;;;;;-3.76;100.00;94403.28;2090622;28;20129;-91
2021/12/19 00:18:47;;;;;;;22.40;13.57;;;;;;;-3.83;100.00;94390.63;2090441;28;20055;-86
2021/12/19 00:19:48;;;;;;;23.10;13.35;;;;;;;-3.82;100.00;94394.78;2098815;28;20499;-87
2021/12/19 00:20:49;;;;;;;22.00;12.75;;;;;;;-3.83;100.00;94396.63;2098835;28;20020;-91
2021/12/19 00:21:50;;;;;;;21.30;12.63;;;;;;;-3.86;100.00;94401.66;2090226;28;20017;-88
2021/12/19 00:22:51;;;;;;;23.20;12.68;;;;;;;-3.97;100.00;94395.09;2090314;28;20090;-87
2021/12/19 00:23:53;;;;;;;20.27;12.63;;;;;;;-4.06;100.00;94397.63;2090279;28;20025;-87
2021/12/19 00:24:54;;;;;;;19.42;12.57;;;;;;;-3.97;100.00;94395.09;2090853;28;20029;-87
2021/12/19 00:25:55;;;;;;;21.60;12.80;;;;;;;-4.02;100.00;94403.81;2090654;28;20025;-88
2021/12/19 00:26:56;;;;;;;25.45;13.07;;;;;;;-3.97;100.00;94405.53;2090627;28;20045;-87
2021/12/19 00:27:57;;;;;;;20.33;12.77;;;;;;;-3.97;100.00;94402.94;2090454;28;20021;-92
2021/12/19 00:29:00;;;;;;;21.00;12.73;;;;;;;-3.98;100.00;94401.41;2098710;28;20473;-88
2021/12/19 00:30:03;;;;;;;23.17;13.20;;;;;;;-3.96;100.00;94400.03;2099018;28;20013;-90
2021/12/19 00:31:05;;;;;;;19.65;11.73;;;;;;;-4.05;100.00;94396.53;2099309;28;20078;-87
2021/12/19 00:32:06;;;;;;;21.05;12.45;;;;;;;-4.02;100.00;94403.81;2098642;28;20074;-89
2021/12/19 00:33:07;;;;;;;21.27;12.40;;;;;;;-4.01;100.00;94401.97;2098585;28;20527;-92
2021/12/19 00:34:08;;;;;;;18.58;11.50;;;;;;;-4.00;100.00;94401.66;2090650;28;20028;-87
2021/12/19 00:35:09;;;;;;;19.80;11.77;;;;;;;-4.02;100.00;94397.81;2099198;28;20562;-87
2021/12/19 00:36:13;;;;;;;19.45;12.32;;;;;;;-4.00;100.00;94396.44;2092268;28;20025;-88
2021/12/19 00:37:14;;;;;;;20.27;12.18;;;;;;;-4.04;100.00;94398.09;2091608;28;20032;-88
2021/12/19 00:38:16;;;;;;;20.27;12.13;;;;;;;-3.90;100.00;94400.72;2090164;28;20028;-87
2021/12/19 00:39:34;;;;;;;20.98;12.38;;;;;;;-3.83;100.00;94388.00;2098775;28;20032;-90
2021/12/19 00:40:37;;;;;;;18.20;11.52;;;;;;;-3.90;100.00;94398.88;2094813;28;20020;-88
2021/12/19 00:41:38;;;;;;;19.60;11.48;;;;;;;-3.88;100.00;94406.41;2106673;28;20071;-88
2021/12/19 00:42:39;;;;;;;18.65;11.75;;;;;;;-3.93;100.00;94402.06;2098458;28;20385;-88
2021/12/19 00:43:54;;;;;;;19.25;11.73;;;;;;;-3.96;100.00;94401.84;2106499;28;20062;-86
2021/12/19 00:44:55;;;;;;;17.17;11.23;;;;;;;-4.02;100.00;94408.25;2093951;28;20017;-87
2021/12/19 00:45:56;;;;;;;18.92;11.32;;;;;;;-3.94;100.00;94404.97;2090106;28;20025;-87
2021/12/19 00:47:04;;;;;;;20.15;11.02;;;;;;;-3.89;100.00;94415.31;2098288;28;20017;-92
2021/12/19 00:48:07;;;;;;;18.92;11.23;;;;;;;-3.85;100.00;94411.03;2092518;28;20028;-88
2021/12/19 00:49:09;;;;;;;20.00;12.13;;;;;;;-3.88;100.00;94409.78;2090009;28;20022;-91
2021/12/19 00:50:12;;;;;;;21.17;13.10;;;;;;;-3.95;100.00;94411.22;2089768;28;20405;-86
2021/12/19 00:51:16;;;;;;;20.58;12.75;;;;;;;-3.96;100.00;94418.28;2094731;28;20033;-86
2021/12/19 00:52:17;;;;;;;21.42;13.40;;;;;;;-3.92;100.00;94418.50;2098740;28;20021;-89
2021/12/19 00:53:19;;;;;;;22.65;13.82;;;;;;;-3.90;100.00;94422.38;2090015;28;20083;-87
2021/12/19 00:54:20;;;;;;;24.60;14.13;;;;;;;-3.91;100.00;94422.66;2098486;28;20025;-85
2021/12/19 00:55:23;;;;;;;22.42;13.95;;;;;;;-3.99;100.00;94425.97;2098315;28;20024;-87
2021/12/19 00:56:25;;;;;;;24.30;14.23;;;;;;;-3.99;100.00;94431.19;2098791;28;20032;-86
2021/12/19 00:57:26;;;;;;;24.73;14.98;;;;;;;-3.89;100.00;94431.75;2090334;28;20031;-86
2021/12/19 00:58:27;;;;;;;24.42;14.38;;;;;;;-3.82;100.00;94426.13;2090101;28;20399;-89
2021/12/19 00:59:28;;;;;;;24.13;14.50;;;;;;;-3.73;100.00;94427.00;2089919;28;20028;-88
2021/12/19 01:00:35;;;;;;;23.05;13.77;;;;;;;-3.73;100.00;94429.59;2089998;28;20355;-85
2021/12/19 01:01:37;;;;;;;22.77;14.05;;;;;;;-3.76;100.00;94434.63;2091597;28;20482;-87
2021/12/19 01:02:41;;;;;;;23.38;13.82;;;;;;;-3.71;100.00;94431.91;2098684;28;20044;-89
2021/12/19 01:03:46;;;;;;;23.00;13.68;;;;;;;-3.74;100.00;94435.88;2106438;28;20020;-88
2021/12/19 01:04:47;;;;;;;29.48;16.30;;;;;;;-3.54;100.00;94426.84;2091327;28;20025;-88
2021/12/19 01:05:50;;;;;;;26.58;15.13;;;;;;;-3.69;100.00;94430.53;2098562;28;20024;-89
2021/12/19 01:06:51;;;;;;;23.60;13.57;;;;;;;-3.43;100.00;94417.72;2106877;28;20024;-90
2021/12/19 01:07:52;;;;;;;19.70;12.68;;;;;;;-3.50;100.00;94419.19;2098352;28;20025;-88
2021/12/19 01:08:53;;;;;;;21.30;12.75;;;;;;;-3.49;100.00;94416.28;2091100;28;20028;-87
2021/12/19 01:09:53;;;;;;;22.60;12.95;;;;;;;-3.40;100.00;94418.97;2106376;28;20146;-91
2021/12/19 01:10:56;;;;;;;21.05;12.98;;;;;;;-3.47;100.00;94415.97;2099683;28;20449;-89
2021/12/19 01:11:59;;;;;;;21.90;13.85;;;;;;;-3.45;100.00;94414.63;2098714;28;20020;-86
2021/12/19 01:13:02;;;;;;;25.50;14.43;;;;;;;-3.48;100.00;94415.22;2106919;28;20111;-88
2021/12/19 01:14:04;;;;;;;22.20;13.15;;;;;;;-3.65;100.00;94420.28;2098385;28;20051;-87
2021/12/19 01:15:09;;;;;;;22.20;13.55;;;;;;;-3.53;100.00;94407.50;2090209;28;20021;-86
2021/12/19 01:16:13;;;;;;;24.23;13.88;;;;;;;-3.60;100.00;94402.69;2091105;28;20504;-89
2021/12/19 01:17:14;;;;;;;24.60;14.52;;;;;;;-3.73;100.00;94402.69;2090909;28;20036;-90
2021/12/19 01:18:15;;;;;;;26.52;14.88;;;;;;;-3.74;100.00;94401.16;2089898;28;20569;-89
2021/12/19 01:19:16;;;;;;;25.95;14.38;;;;;;;-3.76;100.00;94404.06;2098123;28;20102;-87
2021/12/19 01:20:24;;;;;;;27.10;15.13;;;;;;;-3.81;100.00;94398.94;2098137;28;20020;-86
2021/12/19 01:21:27;;;;;;;22.67;13.32;;;;;;;-3.91;100.00;94405.13;2098111;28;20042;-88
2021/12/19 01:22:32;;;;;;;22.02;14.10;;;;;;;-3.86;100.00;94402.44;2115013;27;20023;-90
2021/12/19 01:23:33;;;;;;;22.58;12.88;;;;;;;-3.90;100.00;94401.47;2106971;28;20108;-87
2021/12/19 01:24:34;;;;;;;26.23;13.80;;;;;;;-3.88;100.00;94399.34;2106861;28;20028;-88
2021/12/19 01:25:36;;;;;;;24.77;13.88;;;;;;;-3.91;100.00;94399.13;2106296;28;20109;-87
2021/12/19 01:26:42;;;;;;;24.90;14.07;;;;;;;-4.01;100.00;94399.34;2090220;28;20017;-87
2021/12/19 01:27:44;;;;;;;22.90;14.20;;;;;;;-3.90;100.00;94405.94;2099596;28;20161;-88
2021/12/19 01:28:45;;;;;;;25.65;14.95;;;;;;;-3.92;100.00;94406.19;2106554;28;20114;-88
2021/12/19 01:29:49;;;;;;;22.67;13.68;;;;;;;-3.97;100.00;94408.16;2106214;28;20046;-88
2021/12/19 01:30:50;;;;;;;22.13;13.63;;;;;;;-4.03;100.00;94410.09;2098129;28;20469;-86
2021/12/19 01:31:51;;;;;;;25.05;13.85;;;;;;;-4.05;100.00;94407.75;2097892;28;20020;-88
2021/12/19 01:32:53;;;;;;;24.17;14.35;;;;;;;-4.02;100.00;94406.41;2106369;28;20027;-88
2021/12/19 01:33:54;;;;;;;25.60;14.75;;;;;;;-4.03;100.00;94407.50;2104480;28;20081;-89
2021/12/19 01:34:55;;;;;;;25.67;14.55;;;;;;;-4.03;100.00;94412.72;2114758;28;20077;-88
2021/12/19 01:35:56;;;;;;;25.73;14.75;;;;;;;-3.99;100.00;94411.06;2097898;28;20028;-90
2021/12/19 01:36:57;;;;;;;26.23;14.02;;;;;;;-4.01;100.00;94409.81;2089897;28;20029;-85
2021/12/19 01:37:58;;;;;;;21.73;13.48;;;;;;;-4.12;100.00;94410.00;2089855;28;20020;-86
2021/12/19 01:39:03;;;;;;;24.55;14.20;;;;;;;-4.10;100.00;94410.47;2098085;28;20036;-84
2021/12/19 01:40:10;;;;;;;25.48;14.50;;;;;;;-4.12;100.00;94415.22;2098525;28;20460;-90
2021/12/19 01:41:11;;;;;;;22.25;13.45;;;;;;;-4.15;100.00;94404.59;2107062;28;20027;-87
2021/12/19 01:42:35;;;;;;;26.88;15.10;;;;;;;-4.09;100.00;94396.34;2114642;28;20443;-89
2021/12/19 01:43:36;;;;;;;24.20;14.02;;;;;;;-4.03;100.00;94397.03;2109522;28;20023;-86
2021/12/19 01:44:38;;;;;;;24.33;13.75;;;;;;;-4.11;100.00;94398.50;2106277;28;20051;-88
2021/12/19 01:45:41;;;;;;;24.63;13.77;;;;;;;-4.06;100.00;94395.78;2114748;28;20482;-90
2021/12/19 01:46:44;;;;;;;24.40;14.65;;;;;;;-4.12;100.00;94407.41;2114931;28;20054;-89
2021/12/19 01:47:45;;;;;;;23.65;14.65;;;;;;;-4.12;100.00;94396.97;2106519;28;20024;-89
2021/12/19 01:48:46;;;;;;;22.95;14.13;;;;;;;-4.07;100.00;94399.47;2097998;28;20025;-87
2021/12/19 01:49:47;;;;;;;30.58;14.90;;;;;;;-3.84;100.00;94395.06;2097912;28;20111;-88
2021/12/19 01:50:48;;;;;;;27.38;14.68;;;;;;;-3.85;100.00;94403.22;2097675;28;20071;-90
2021/12/19 01:51:50;;;;;;;36.20;16.13;;;;;;;-3.98;100.00;94404.00;2089713;28;20504;-85
2021/12/19 01:52:51;;;;;;;25.52;14.27;;;;;;;-3.97;100.00;94405.53;2103901;28;20027;-90
2021/12/19 01:53:52;;;;;;;26.15;15.30;;;;;;;-4.07;100.00;94401.31;2097776;28;20079;-88
2021/12/19 01:54:57;;;;;;;25.13;15.02;;;;;;;-4.08;100.00;94387.47;2089713;28;20029;-88
2021/12/19 01:55:59;;;;;;;24.80;15.45;;;;;;;-4.21;100.00;94390.88;2098385;28;20054;-87
2021/12/19 01:57:00;;;;;;;25.27;15.75;;;;;;;-4.24;100.00;94388.84;2092613;28;20074;-89
2021/12/19 01:58:01;;;;;;;25.13;14.98;;;;;;;-4.22;100.00;94386.69;2097874;28;20024;-87
2021/12/19 01:59:03;;;;;;;27.38;14.98;;;;;;;-4.14;100.00;94386.03;2097836;28;20107;-88
2021/12/19 02:00:07;;;;;;;24.50;15.10;;;;;;;-4.10;100.00;94386.97;2098121;28;20485;-86
2021/12/19 02:01:08;;;;;;;25.70;14.90;;;;;;;-4.15;100.00;94381.88;2090143;28;20477;-86
2021/12/19 02:02:09;;;;;;;27.42;15.85;;;;;;;-4.10;100.00;94381.75;2097808;28;20040;-86
2021/12/19 02:03:18;;;;;;;25.35;15.55;;;;;;;-4.20;100.00;94378.59;2098174;28;20061;-86
2021/12/19 02:04:21;;;;;;;24.75;14.60;;;;;;;-4.29;100.00;94375.88;2098826;28;20020;-85
2021/12/19 02:05:24;;;;;;;22.58;13.95;;;;;;;-4.28;100.00;94380.03;2098154;28;20433;-88
2021/12/19 02:06:25;;;;;;;21.55;13.43;;;;;;;-4.22;100.00;94372.88;2104711;28;20106;-89
2021/12/19 02:07:28;;;;;;;23.85;13.95;;;;;;;-4.17;100.00;94372.78;2105963;28;20036;-91
2021/12/19 02:09:38;;;;;;;;;;;;;;;-4.31;100.00;94375.38;2149061;27;20109;-87
2021/12/19 02:10:40;;;;;;;21.60;11.38;;;;;;;-4.17;100.00;94373.56;2130536;27;19954;-86
2021/12/19 02:11:42;;;;;;;24.15;13.45;;;;;;;-4.20;100.00;94371.53;2114033;27;20024;-89
2021/12/19 02:12:44;;;;;;;23.45;13.40;;;;;;;-4.32;100.00;94360.81;2122082;27;20024;-86
2021/12/19 02:13:45;;;;;;;19.63;12.45;;;;;;;-4.42;100.00;94368.84;2130637;27;20030;-88
2021/12/19 02:14:46;;;;;;;23.15;14.10;;;;;;;-4.42;100.00;94364.38;2122056;27;20114;-87
2021/12/19 02:15:47;;;;;;;22.67;13.95;;;;;;;-4.42;100.00;94371.44;2113631;27;20040;-86
2021/12/19 02:16:48;;;;;;;24.10;13.55;;;;;;;-4.45;100.00;94367.56;2121796;27;20032;-88
2021/12/19 02:17:52;;;;;;;24.55;14.20;;;;;;;-4.58;100.00;94361.28;2130304;27;20061;-86
2021/12/19 02:18:53;;;;;;;25.02;14.05;;;;;;;-4.54;100.00;94361.47;2131258;27;20034;-87
2021/12/19 02:19:57;;;;;;;22.05;13.15;;;;;;;-4.49;100.00;94365.84;2130528;27;20023;-87
2021/12/19 02:21:03;;;;;;;24.55;13.98;;;;;;;-4.52;100.00;94366.41;2124502;27;20118;-87
2021/12/19 02:22:08;;;;;;;21.13;12.63;;;;;;;-4.58;100.00;94365.72;2114949;27;20028;-87
2021/12/19 02:23:13;;;;;;;22.35;13.40;;;;;;;-4.64;100.00;94357.22;2114595;27;20120;-89
2021/12/19 02:24:40;;;;;;;22.35;13.60;;;;;;;-4.71;100.00;94362.03;2122602;27;20070;-86
2021/12/19 02:25:41;;;;;;;20.80;12.38;;;;;;;-4.58;100.00;94358.69;2120878;27;20114;-86
2021/12/19 02:26:43;;;;;;;21.00;12.23;;;;;;;-4.54;100.00;94361.47;2113173;28;20034;-90
2021/12/19 02:27:49;;;;;;;24.50;13.90;;;;;;;-4.57;100.00;94356.84;2113727;27;20031;-86
2021/12/19 02:28:55;;;;;;;21.40;13.45;;;;;;;-4.65;100.00;94358.31;2113737;28;20088;-88
2021/12/19 02:30:02;;;;;;;22.60;13.25;;;;;;;-4.67;100.00;94349.97;2114153;28;20568;-87
2021/12/19 02:31:07;;;;;;;24.02;13.55;;;;;;;-4.81;100.00;94357.78;2115303;27;20089;-87
2021/12/19 02:32:09;;;;;;;20.63;13.27;;;;;;;-4.80;100.00;94350.75;2114122;28;20027;-87
2021/12/19 02:33:15;;;;;;;21.48;13.05;;;;;;;-4.76;100.00;94345.72;2105063;28;20024;-88
2021/12/19 02:34:25;;;;;;;21.88;13.70;;;;;;;-4.75;100.00;94353.25;2123639;27;20084;-90
2021/12/19 02:35:33;;;;;;;23.48;13.25;;;;;;;-4.72;100.00;94357.13;2121970;28;20388;-86
2021/12/19 02:36:51;;;;;;;22.42;13.52;;;;;;;-4.73;100.00;94358.97;2115448;27;20051;-90
2021/12/19 02:40:37;;;;;;;20.48;12.02;;;;;;;-4.63;100.00;94361.38;2131252;27;20106;-90
2021/12/19 02:49:05;;;;;;;16.23;10.45;;;;;;;-4.57;100.00;94364.66;2124125;27;20121;-87
2021/12/19 02:50:11;;;;;;;21.27;12.10;;;;;;;-4.59;100.00;94359.75;2121743;27;20356;-87
2021/12/19 02:51:12;;;;;;;21.55;12.38;;;;;;;-4.62;100.00;94360.31;2122665;27;20027;-89
2021/12/19 02:52:19;;;;;;;20.15;12.45;;;;;;;-4.70;100.00;94352.38;2116680;28;20016;-86
2021/12/19 02:53:39;;;;;;;17.98;11.27;;;;;;;-4.68;100.00;94352.88;2123134;27;20440;-86
2021/12/19 02:54:45;;;;;;;18.77;11.55;;;;;;;-4.70;100.00;94355.75;2106920;28;20112;-87
2021/12/19 02:55:56;;;;;;;21.83;12.30;;;;;;;-4.72;100.00;94351.91;2120773;28;20191;-87
2021/12/19 02:56:58;;;;;;;20.90;11.77;;;;;;;-4.78;100.00;94351.25;2120987;28;20064;-89
2021/12/19 02:57:59;;;;;;;22.90;12.65;;;;;;;-4.86;100.00;94347.47;2114494;28;20056;-89
2021/12/19 02:59:00;;;;;;;22.90;12.93;;;;;;;-4.79;100.00;94341.06;2096388;28;20017;-88
2021/12/19 03:00:02;;;;;;;20.85;12.85;;;;;;;-4.84;100.00;94341.94;2107889;28;20023;-85
2021/12/19 03:01:08;;;;;;;20.92;12.43;;;;;;;-4.96;100.00;94344.25;2113292;28;20118;-87
2021/12/19 03:02:09;;;;;;;23.02;12.18;;;;;;;-5.00;100.00;94335.44;2106375;28;20166;-88
2021/12/19 03:03:10;;;;;;;19.65;11.75;;;;;;;-4.95;100.00;94338.75;2113315;28;20028;-86
2021/12/19 03:04:12;;;;;;;19.40;12.15;;;;;;;-4.89;100.00;94340.19;2121544;28;20050;-87
2021/12/19 03:05:14;;;;;;;19.80;12.20;;;;;;;-4.95;100.00;94340.59;2121467;28;20019;-87
2021/12/19 03:06:15;;;;;;;20.35;12.75;;;;;;;-4.84;100.00;94339.34;2104698;28;20168;-87
2021/12/19 03:07:42;;;;;;;18.05;11.40;;;;;;;-4.99;100.00;94335.19;2109850;28;20051;-88
2021/12/19 03:08:47;;;;;;;17.02;10.43;;;;;;;-5.03;100.00;94333.44;2116549;28;20070;-87
2021/12/19 03:12:09;;;;;;;17.30;10.73;;;;;;;-4.94;100.00;94327.25;2121542;28;20023;-88
2021/12/19 03:18:14;;;;;;;16.60;9.32;;;;;;;-4.70;100.00;94324.47;2115730;28;19955;-88
2021/12/19 03:19:15;;;;;;;16.67;10.10;;;;;;;-4.75;100.00;94321.97;2104551;28;20492;-87
2021/12/19 03:20:17;;;;;;;16.27;9.90;;;;;;;-4.77;100.00;94318.88;2094923;28;20021;-89
2021/12/19 03:21:24;;;;;;;17.52;10.60;;;;;;;-4.87;100.00;94324.28;2103851;28;20020;-86
2021/12/19 03:22:26;;;;;;;17.08;11.60;;;;;;;-4.79;100.00;94320.97;2107310;28;20047;-89
2021/12/19 03:23:30;;;;;;;17.60;10.63;;;;;;;-4.88;100.00;94325.31;2105991;28;20024;-89
2021/12/19 03:24:31;;;;;;;17.65;11.07;;;;;;;-4.89;100.00;94314.13;2124789;27;20882;-87
2021/12/19 03:25:33;;;;;;;18.17;10.82;;;;;;;-4.89;100.00;94321.19;2124211;27;20444;-85
2021/12/19 03:26:34;;;;;;;16.98;10.60;;;;;;;-4.84;100.00;94318.47;2114816;28;20054;-88
2021/12/19 03:27:35;;;;;;;17.92;11.15;;;;;;;-4.77;100.00;94328.53;2107351;28;20027;-87
2021/12/19 03:28:49;;;;;;;16.08;10.57;;;;;;;-4.75;100.00;94314.13;2099088;28;20074;-88
2021/12/19 03:29:50;;;;;;;18.52;11.05;;;;;;;-4.95;100.00;94311.91;2102724;28;20032;-87
2021/12/19 03:30:51;;;;;;;18.85;11.15;;;;;;;-5.04;100.00;94317.03;2115674;28;20043;-87
2021/12/19 03:31:52;;;;;;;17.95;11.75;;;;;;;-4.98;100.00;94318.47;2098839;28;20020;-89
2021/12/19 03:32:53;;;;;;;17.33;10.90;;;;;;;-4.97;100.00;94312.19;2107209;28;20020;-90
2021/12/19 03:33:54;;;;;;;16.95;10.88;;;;;;;-5.04;100.00;94321.47;2107412;28;20028;-87
2021/12/19 03:34:55;;;;;;;16.88;10.45;;;;;;;-5.11;100.00;94314.78;2107378;28;20048;-90
2021/12/19 03:35:56;;;;;;;15.98;10.45;;;;;;;-4.92;100.00;94306.88;2115804;28;20042;-88
2021/12/19 03:36:57;;;;;;;17.40;11.43;;;;;;;-4.71;100.00;94322.16;2103205;28;20027;-86
2021/12/19 03:38:00;;;;;;;16.85;10.95;;;;;;;-4.72;100.00;94312.78;2102010;28;20397;-90
2021/12/19 03:39:13;;;;;;;18.65;11.05;;;;;;;-4.77;100.00;94316.28;2115515;27;20381;-88
2021/12/19 03:40:22;;;;;;;17.13;10.30;;;;;;;-4.97;100.00;94309.56;2121207;27;20022;-90
2021/12/19 03:41:26;;;;;;;14.68;10.13;;;;;;;-4.89;100.00;94313.34;2109095;28;20591;-87
2021/12/19 03:42:27;;;;;;;17.85;11.40;;;;;;;-4.90;100.00;94312.59;2102111;28;20032;-88
2021/12/19 03:43:28;;;;;;;16.38;10.88;;;;;;;-4.99;100.00;94310.94;2113256;28;20080;-86
2021/12/19 03:44:29;;;;;;;16.85;10.52;;;;;;;-4.94;100.00;94313.47;2110588;28;21406;-87
2021/12/19 03:45:30;;;;;;;17.48;10.93;;;;;;;-4.95;100.00;94315.28;2108543;28;20016;-89
2021/12/19 03:46:32;;;;;;;14.73;10.27;;;;;;;-5.07;100.00;94310.53;2105048;28;20025;-87
2021/12/19 03:47:33;;;;;;;18.08;10.65;;;;;;;-5.05;100.00;94315.44;2098778;28;20039;-87
2021/12/19 03:48:34;;;;;;;15.68;10.48;;;;;;;-4.93;100.00;94309.78;2098870;28;20443;-86
2021/12/19 03:49:49;;;;;;;17.02;10.80;;;;;;;-4.99;100.00;94303.13;2098745;28;20027;-86
2021/12/19 03:50:50;;;;;;;17.10;10.13;;;;;;;-5.10;100.00;94312.94;2116927;27;20031;-86
2021/12/19 03:51:51;;;;;;;15.13;10.38;;;;;;;-5.17;100.00;94305.50;2107170;28;20023;-89
2021/12/19 03:52:53;;;;;;;16.00;10.88;;;;;;;-5.24;100.00;94306.94;2107478;28;20115;-88
2021/12/19 03:53:54;;;;;;;16.52;10.25;;;;;;;-5.22;100.00;94304.84;2115885;27;20074;-89
2021/12/19 03:54:56;;;;;;;17.92;10.90;;;;;;;-5.24;100.00;94307.72;2115736;28;20408;-89
2021/12/19 03:55:57;;;;;;;16.85;10.23;;;;;;;-5.18;100.00;94303.16;2115670;28;20047;-86
2021/12/19 03:56:58;;;;;;;17.55;9.85;;;;;;;-5.14;100.00;94306.75;2107335;28;20020;-87
2021/12/19 03:57:59;;;;;;;17.30;10.35;;;;;;;-5.21;100.00;94301.94;2106821;28;22315;-89
2021/12/19 03:59:01;;;;;;;15.13;10.27;;;;;;;-5.34;100.00;94297.47;2107243;28;20063;-88
2021/12/19 04:00:05;;;;;;;14.85;10.20;;;;;;;-5.35;100.00;94298.53;2098752;28;20020;-89
2021/12/19 04:01:08;;;;;;;15.63;10.15;;;;;;;-5.24;100.00;94299.13;2091403;28;20447;-88
2021/12/19 04:02:11;;;;;;;16.38;10.23;;;;;;;-5.22;100.00;94305.59;2099151;28;20205;-88
2021/12/19 04:03:19;;;;;;;14.38;9.30;;;;;;;-5.28;100.00;94301.53;2107442;28;20465;-88
2021/12/19 04:04:20;;;;;;;15.18;10.35;;;;;;;-5.36;100.00;94302.19;2115632;28;20512;-88
2021/12/19 04:05:22;;;;;;;14.48;8.95;;;;;;;-5.27;100.00;94297.84;2106985;28;20028;-85
2021/12/19 04:06:23;;;;;;;12.90;9.05;;;;;;;-5.22;100.00;94295.19;2098919;28;20021;-88
2021/12/19 04:07:29;;;;;;;13.02;8.82;;;;;;;-5.34;100.00;94300.06;2096491;28;20024;-91
2021/12/19 04:08:30;;;;;;;12.55;8.15;;;;;;;-5.34;100.00;94298.25;2107327;28;20098;-89
2021/12/19 04:09:31;;;;;;;12.75;8.43;;;;;;;-5.33;100.00;94297.16;2115008;28;20051;-87
2021/12/19 04:10:34;;;;;;;12.00;8.38;;;;;;;-5.30;100.00;94301.06;2106956;28;20104;-85
2021/12/19 04:11:35;;;;;;;11.82;8.38;;;;;;;-5.26;100.00;94296.81;2107023;28;20481;-87
2021/12/19 04:12:36;;;;;;;12.98;7.80;;;;;;;-5.23;100.00;94290.25;2106928;28;20055;-87
2021/12/19 04:13:37;;;;;;;13.00;8.73;;;;;;;-5.32;100.00;94292.72;2115280;28;20066;-88
2021/12/19 04:14:38;;;;;;;13.77;9.02;;;;;;;-5.22;100.00;94282.16;2098648;28;20032;-87
2021/12/19 04:15:39;;;;;;;13.23;8.82;;;;;;;-5.26;100.00;94286.38;2098875;28;20020;-89
2021/12/19 04:16:42;;;;;;;16.52;9.68;;;;;;;-5.24;100.00;94279.03;2098688;28;20074;-88
2021/12/19 04:17:43;;;;;;;15.70;9.55;;;;;;;-5.15;100.00;94290.34;2090877;28;20478;-88
2021/12/19 04:18:44;;;;;;;13.77;9.63;;;;;;;-5.15;100.00;94281.75;2090489;28;20107;-87
2021/12/19 04:19:45;;;;;;;15.52;9.13;;;;;;;-5.16;100.00;94285.44;2098471;28;20032;-88
2021/12/19 04:20:47;;;;;;;15.82;10.38;;;;;;;-5.24;100.00;94291.31;2107808;28;20400;-89
2021/12/19 04:21:48;;;;;;;17.27;10.38;;;;;;;-5.25;100.00;94294.97;2106900;28;20024;-87
2021/12/19 04:22:51;;;;;;;19.00;9.30;;;;;;;-5.15;100.00;94286.97;2098482;28;21078;-86
2021/12/19 04:23:52;;;;;;;13.85;9.88;;;;;;;-5.15;100.00;94286.97;2099112;28;20399;-87
2021/12/19 04:24:53;;;;;;;16.95;9.73;;;;;;;-5.16;100.00;94291.41;2115346;28;20035;-88
2021/12/19 04:25:54;;;;;;;15.02;9.93;;;;;;;-5.16;100.00;94291.41;2106834;28;20031;-90
2021/12/19 04:26:56;;;;;;;14.60;9.82;;;;;;;-5.14;100.00;94297.09;2098151;28;20039;-86
2021/12/19 04:27:57;;;;;;;14.98;9.52;;;;;;;-5.09;100.00;94293.66;2090576;28;20025;-86
2021/12/19 04:28:58;;;;;;;14.07;9.70;;;;;;;-4.95;100.00;94301.50;2098425;28;20113;-87
2021/12/19 04:29:58;;;;;;;16.23;10.20;;;;;;;-4.85;100.00;94306.50;2098427;28;20574;-87
2021/12/19 04:31:03;;;;;;;15.63;10.32;;;;;;;-5.05;100.00;94302.41;2107083;28;20365;-87
2021/12/19 04:32:07;;;;;;;14.13;8.75;;;;;;;-5.10;100.00;94303.28;2106820;28;20484;-88
2021/12/19 04:33:11;;;;;;;14.25;9.48;;;;;;;-5.09;100.00;94293.66;2114854;28;20102;-89
2021/12/19 04:34:13;;;;;;;14.80;9.75;;;;;;;-5.16;100.00;94308.88;2106753;28;20442;-87
2021/12/19 04:35:15;;;;;;;15.02;8.98;;;;;;;-5.20;100.00;94302.69;2090586;28;20497;-88
2021/12/19 04:36:23;;;;;;;15.30;9.50;;;;;;;-5.21;100.00;94307.16;2090411;28;20518;-87
2021/12/19 04:40:07;;;;;;;13.32;8.27;;;;;;;-5.22;100.00;94302.22;2115055;28;20076;-87
2021/12/19 04:57:54;;;;;;;9.70;6.32;;;;;;;-5.50;100.00;94285.75;2115881;28;20082;-88
2021/12/19 04:59:14;;;;;;;10.05;7.28;;;;;;;-5.48;100.00;94287.03;2109772;28;20450;-87
2021/12/19 05:00:18;;;;;;;10.88;6.93;;;;;;;-5.51;100.00;94284.22;2109930;28;20453;-86
2021/12/19 05:03:46;;;;;;;11.18;7.13;;;;;;;-5.38;100.00;94278.25;2123608;27;20029;-88
2021/12/19 05:06:03;;;;;;;11.32;7.60;;;;;;;-5.39;100.00;94274.88;2115209;28;20538;-87
2021/12/19 05:14:22;;;;;;;11.95;7.18;;;;;;;-5.26;100.00;94278.56;2123869;27;20025;-88
2021/12/19 05:15:27;;;;;;;12.20;7.85;;;;;;;-5.16;100.00;94288.03;2123940;27;20425;-86
2021/12/19 05:16:28;;;;;;;13.32;7.60;;;;;;;-5.14;100.00;94278.09;2123329;27;20457;-88
2021/12/19 05:17:31;;;;;;;14.90;8.70;;;;;;;-5.21;100.00;94281.09;2114892;28;20444;-88
2021/12/19 05:18:38;;;;;;;11.48;7.97;;;;;;;-5.20;100.00;94277.41;2115370;28;20528;-86
2021/12/19 05:20:04;;;;;;;14.32;8.32;;;;;;;-5.21;100.00;94277.72;2115973;28;20441;-89
2021/12/19 05:21:14;;;;;;;14.98;8.73;;;;;;;-5.29;100.00;94288.78;2109747;28;20024;-87
2021/12/19 05:22:17;;;;;;;15.63;8.68;;;;;;;-5.26;100.00;94291.59;2109140;27;20780;-87
2021/12/19 05:23:35;;;;;;;14.30;8.25;;;;;;;-5.30;100.00;94295.84;2106559;28;20121;-88
2021/12/19 05:25:37;;;;;;;14.13;8.48;;;;;;;-5.42;100.00;94285.88;2106518;28;20440;-87
2021/12/19 05:26:42;;;;;;;13.85;8.80;;;;;;;-5.26;100.00;94283.78;2102736;28;20058;-88
2021/12/19 05:27:48;;;;;;;13.70;7.97;;;;;;;-5.39;100.00;94285.31;2104710;28;20024;-85
2021/12/19 05:28:52;;;;;;;13.50;8.90;;;;;;;-5.35;100.00;94277.69;2105728;28;20852;-88
2021/12/19 05:29:53;;;;;;;14.75;8.82;;;;;;;-5.53;100.00;94286.31;2097732;28;20112;-87
2021/12/19 05:30:54;;;;;;;13.60;8.68;;;;;;;-5.61;100.00;94280.72;2105602;28;20036;-87
2021/12/19 05:31:55;;;;;;;14.55;8.70;;;;;;;-5.68;100.00;94285.50;2121082;27;20023;-86
2021/12/19 05:32:56;;;;;;;15.05;8.60;;;;;;;-5.57;100.00;94283.53;2113697;28;20023;-89
2021/12/19 05:34:00;;;;;;;14.32;9.00;;;;;;;-5.57;100.00;94286.91;2100475;28;20035;-86
2021/12/19 05:35:02;;;;;;;12.45;7.95;;;;;;;-5.63;100.00;94285.41;2100400;28;20519;-87
2021/12/19 05:46:06;;;;;;;13.13;8.07;;;;;;;-5.59;100.00;94272.59;2106779;28;20024;-88
2021/12/19 05:47:08;;;;;;;12.50;7.95;;;;;;;-5.54;100.00;94280.31;2107783;28;20023;-89
2021/12/19 05:48:09;;;;;;;12.52;7.20;;;;;;;-5.52;100.00;94273.03;2104284;28;20071;-86
2021/12/19 05:49:10;;;;;;;13.77;7.78;;;;;;;-5.62;100.00;94271.34;2097221;28;20719;-86
2021/12/19 05:50:11;;;;;;;14.00;8.55;;;;;;;-5.69;100.00;94267.56;2097067;28;20074;-89
2021/12/19 05:51:12;;;;;;;11.63;7.50;;;;;;;-5.68;100.00;94271.72;2101779;28;20983;-86
2021/12/19 05:52:13;;;;;;;10.63;7.40;;;;;;;-5.68;100.00;94266.50;2105662;28;20438;-88
2021/12/19 05:53:15;;;;;;;12.90;7.78;;;;;;;-5.66;100.00;94259.97;2114240;28;20023;-89
2021/12/19 05:54:16;;;;;;;10.65;7.03;;;;;;;-5.72;100.00;94265.53;2114116;28;20472;-88